createdAt,value
2018-11-20T00:01:51.107Z,17.48
2018-11-20T00:04:39.365Z,14.50
2018-11-20T00:07:30.373Z,14.50
2018-11-20T00:10:18.673Z,17.80
2018-11-20T00:13:09.874Z,22.70
2018-11-20T00:16:15.912Z,24.60
2018-11-20T00:19:12.362Z,21.10
2018-11-20T00:21:59.152Z,21.82
2018-11-20T00:24:45.792Z,21.12
2018-11-20T00:27:42.672Z,22.73
2018-11-20T00:30:45.781Z,23.83
2018-11-20T00:33:34.053Z,21.62
2018-11-20T00:36:20.741Z,17.32
2018-11-20T00:38:56.754Z,19.45
2018-11-20T00:41:50.869Z,26.07
2018-11-20T00:44:32.666Z,18.70
2018-11-20T00:47:26.781Z,19.40
2018-11-20T00:50:06.164Z,21.80
2018-11-20T00:52:59.218Z,15.23
2018-11-20T00:56:20.330Z,17.52
2018-11-20T00:59:17.617Z,26.75
2018-11-20T01:01:57.656Z,17.30
2018-11-20T01:04:44.350Z,23.25
2018-11-20T01:07:33.788Z,16.42
2018-11-20T01:10:19.349Z,19.70
2018-11-20T01:13:13.480Z,15.25
2018-11-20T01:16:00.927Z,21.90
2018-11-20T01:18:47.714Z,21.00
2018-11-20T01:21:44.886Z,19.10
2018-11-20T01:24:31.559Z,13.90
2018-11-20T01:27:15.732Z,18.98
2018-11-20T01:30:02.360Z,19.30
2018-11-20T01:33:02.387Z,21.68
2018-11-20T01:35:48.944Z,16.23
2018-11-20T01:38:44.154Z,19.32
2018-11-20T01:41:31.115Z,17.80
2018-11-20T01:44:17.690Z,19.00
2018-11-20T01:47:11.973Z,17.67
2018-11-20T01:50:09.193Z,20.40
2018-11-20T01:52:55.634Z,15.03
2018-11-20T01:55:44.958Z,16.02
2018-11-20T01:58:36.819Z,21.60
2018-11-20T02:01:23.653Z,18.90
2018-11-20T02:04:06.123Z,17.70
2018-11-20T02:07:00.506Z,14.23
2018-11-20T02:09:51.572Z,15.10
2018-11-20T02:16:23.537Z,14.78
2018-11-20T02:19:09.995Z,19.55
2018-11-20T02:22:08.018Z,12.90
2018-11-20T02:24:55.853Z,23.65
2018-11-20T02:27:46.418Z,17.60
2018-11-20T02:30:42.916Z,23.57
2018-11-20T02:33:28.250Z,19.35
2018-11-20T02:36:21.845Z,19.80
2018-11-20T02:39:24.819Z,21.95
2018-11-20T02:42:15.205Z,12.65
2018-11-20T02:45:11.798Z,20.10
2018-11-20T02:48:17.328Z,23.57
2018-11-20T02:51:03.759Z,24.07
2018-11-20T02:53:54.416Z,22.00
2018-11-20T02:56:31.236Z,24.87
2018-11-20T02:59:17.195Z,17.32
2018-11-20T03:02:11.099Z,13.95
2018-11-20T03:05:07.579Z,25.30
2018-11-20T03:08:01.671Z,17.80
2018-11-20T03:10:52.375Z,19.48
2018-11-20T03:13:40.694Z,28.27
2018-11-20T03:16:28.610Z,25.15
2018-11-20T03:19:15.093Z,23.00
2018-11-20T03:22:02.601Z,25.80
2018-11-20T03:25:05.767Z,24.70
2018-11-20T03:28:06.318Z,19.55
2018-11-20T03:31:02.126Z,24.27
2018-11-20T03:33:44.039Z,17.57
2018-11-20T03:36:25.008Z,23.32
2018-11-20T03:39:08.367Z,22.02
2018-11-20T03:41:58.822Z,17.87
2018-11-20T03:44:49.577Z,30.00
2018-11-20T03:47:43.509Z,38.15
2018-11-20T03:50:29.650Z,25.48
2018-11-20T03:53:32.319Z,37.40
2018-11-20T03:56:20.153Z,26.37
2018-11-20T03:59:09.378Z,18.95
2018-11-20T04:01:54.418Z,21.73
2018-11-20T04:04:40.961Z,30.70
2018-11-20T04:07:27.613Z,30.05
2018-11-20T04:10:06.690Z,29.27
2018-11-20T04:12:54.537Z,25.17
2018-11-20T04:15:46.219Z,25.77
2018-11-20T04:18:39.718Z,24.82
2018-11-20T04:21:25.800Z,30.17
2018-11-20T04:24:19.758Z,30.12
2018-11-20T04:27:05.929Z,35.45
2018-11-20T04:29:53.765Z,31.52
2018-11-20T04:32:43.783Z,28.23
2018-11-20T04:35:32.108Z,39.95
2018-11-20T04:38:22.818Z,26.35
2018-11-20T04:41:13.842Z,49.80
2018-11-20T04:44:11.260Z,40.38
2018-11-20T04:46:50.806Z,38.67
2018-11-20T04:49:50.864Z,52.65
2018-11-20T04:52:41.491Z,40.10
2018-11-20T04:55:24.587Z,56.20
2018-11-20T04:58:03.227Z,53.98
2018-11-20T05:00:43.470Z,50.00
2018-11-20T05:03:30.619Z,35.88
2018-11-20T05:06:21.527Z,20.80
2018-11-20T05:09:05.010Z,28.52
2018-11-20T05:11:47.564Z,27.93
2018-11-20T05:14:44.102Z,43.83
2018-11-20T05:17:32.124Z,24.98
2018-11-20T05:20:18.594Z,25.05
2018-11-20T05:23:05.416Z,29.75
2018-11-20T05:26:08.264Z,21.82
2018-11-20T05:28:54.294Z,21.30
2018-11-20T05:31:46.202Z,20.62
2018-11-20T05:34:31.636Z,23.55
2018-11-20T05:37:09.336Z,22.52
2018-11-20T05:39:46.516Z,25.85
2018-11-20T05:42:36.922Z,24.98
2018-11-20T05:45:23.871Z,23.57
2018-11-20T05:48:23.611Z,17.98
2018-11-20T05:51:10.209Z,20.25
2018-11-20T05:54:07.107Z,22.35
2018-11-20T05:57:06.073Z,16.50
2018-11-20T05:59:45.428Z,20.77
2018-11-20T06:02:31.948Z,20.35
2018-11-20T06:05:14.002Z,24.72
2018-11-20T06:08:07.470Z,21.87
2018-11-20T06:11:12.722Z,17.05
2018-11-20T06:13:58.831Z,18.30
2018-11-20T06:17:01.763Z,14.00
2018-11-20T06:19:52.826Z,14.25
2018-11-20T06:22:40.666Z,18.10
2018-11-20T06:25:44.323Z,14.33
2018-11-20T06:28:28.344Z,16.75
2018-11-20T06:31:14.369Z,13.50
2018-11-20T06:34:00.364Z,16.73
2018-11-20T06:36:57.152Z,15.98
2018-11-20T06:39:50.548Z,14.73
2018-11-20T06:42:56.391Z,18.77
2018-11-20T06:45:44.234Z,16.30
2018-11-20T06:48:51.703Z,17.70
2018-11-20T06:51:38.156Z,22.05
2018-11-20T06:54:25.346Z,22.55
2018-11-20T06:57:15.867Z,21.00
2018-11-20T07:00:03.776Z,22.25
2018-11-20T07:02:50.240Z,28.57
2018-11-20T07:05:41.164Z,24.63
2018-11-20T07:08:29.449Z,31.90
2018-11-20T07:11:10.037Z,27.58
2018-11-20T07:14:37.776Z,25.12
2018-11-20T07:17:23.710Z,30.23
2018-11-20T07:20:12.859Z,34.95
2018-11-20T07:22:51.848Z,35.88
2018-11-20T07:25:57.470Z,28.87
2018-11-20T07:28:43.225Z,28.27
2018-11-20T07:31:29.464Z,37.95
2018-11-20T07:34:23.216Z,24.80
2018-11-20T07:37:10.064Z,35.78
2018-11-20T07:40:06.605Z,43.48
2018-11-20T07:43:06.213Z,37.98
2018-11-20T07:45:55.638Z,29.27
2018-11-20T07:48:46.092Z,38.10
2018-11-20T07:51:32.680Z,25.82
2018-11-20T07:54:19.108Z,22.07
2018-11-20T07:57:18.798Z,21.60
2018-11-20T08:00:06.644Z,23.52
2018-11-20T08:02:52.918Z,23.75
2018-11-20T08:05:58.504Z,24.92
2018-11-20T08:08:50.061Z,24.50
2018-11-20T08:11:40.823Z,29.98
2018-11-20T08:14:26.906Z,16.45
2018-11-20T08:17:20.674Z,27.87
2018-11-20T08:20:07.163Z,23.05
2018-11-20T08:22:57.939Z,21.00
2018-11-20T08:25:44.547Z,21.45
2018-11-20T08:28:30.817Z,21.65
2018-11-20T08:31:17.859Z,17.87
2018-11-20T08:34:08.374Z,16.32
2018-11-20T08:36:56.270Z,20.00
2018-11-20T08:39:49.916Z,10.50
2018-11-20T08:42:37.898Z,22.52
2018-11-20T08:45:24.361Z,25.62
2018-11-20T08:48:18.247Z,25.00
2018-11-20T08:51:04.147Z,24.55
2018-11-20T08:54:00.654Z,26.87
2018-11-20T08:56:57.492Z,20.08
2018-11-20T08:59:44.076Z,24.37
2018-11-20T09:02:32.025Z,22.60
2018-11-20T09:05:34.509Z,23.57
2018-11-20T09:08:22.369Z,13.22
2018-11-20T09:11:10.290Z,19.95
2018-11-20T09:14:03.747Z,10.70
2018-11-20T09:16:54.564Z,13.95
2018-11-20T09:19:54.553Z,22.07
2018-11-20T09:22:53.310Z,19.80
2018-11-20T09:25:42.582Z,14.93
2018-11-20T09:28:28.855Z,15.35
2018-11-20T09:31:15.189Z,21.82
2018-11-20T09:34:06.012Z,13.68
2018-11-20T09:36:52.084Z,8.88
2018-11-20T09:39:26.449Z,13.55
2018-11-20T09:42:13.046Z,10.72
2018-11-20T09:45:14.990Z,16.07
2018-11-20T09:48:06.451Z,17.80
2018-11-20T09:51:12.289Z,19.40
2018-11-20T09:53:53.622Z,15.25
2018-11-20T09:56:39.918Z,11.15
2018-11-20T09:59:36.785Z,18.95
2018-11-20T10:02:25.852Z,20.02
2018-11-20T10:05:12.171Z,11.57
2018-11-20T10:08:09.180Z,12.85
2018-11-20T10:10:59.581Z,21.30
2018-11-20T10:13:50.117Z,16.25
2018-11-20T10:16:36.345Z,14.93
2018-11-20T10:19:22.634Z,14.38
2018-11-20T10:22:08.703Z,8.20
2018-11-20T10:24:56.660Z,17.35
2018-11-20T10:27:56.203Z,15.48
2018-11-20T10:30:37.440Z,16.48
2018-11-20T10:33:23.610Z,13.38
2018-11-20T10:36:07.686Z,12.50
2018-11-20T10:38:56.829Z,13.93
2018-11-20T10:41:47.524Z,7.42
2018-11-20T10:44:53.474Z,13.15
2018-11-20T10:47:37.984Z,10.58
2018-11-20T10:50:31.770Z,10.25
2018-11-20T10:53:37.786Z,10.35
2018-11-20T10:56:40.666Z,14.38
2018-11-20T10:59:34.568Z,9.25
2018-11-20T11:02:20.975Z,13.65
2018-11-20T11:05:07.230Z,13.93
2018-11-20T11:07:53.430Z,20.95
2018-11-20T11:10:48.055Z,14.65
2018-11-20T11:13:48.000Z,7.53
2018-11-20T11:16:34.483Z,14.38
2018-11-20T11:19:28.116Z,20.08
2018-11-20T11:22:18.964Z,8.00
2018-11-20T11:25:05.407Z,9.98
2018-11-20T11:27:51.619Z,11.40
2018-11-20T11:30:57.326Z,8.95
2018-11-20T11:33:39.774Z,17.35
2018-11-20T11:36:28.212Z,15.93
2018-11-20T11:39:16.584Z,11.85
2018-11-20T11:42:04.479Z,10.90
2018-11-20T11:44:58.419Z,32.08
2018-11-20T11:47:44.909Z,21.70
2018-11-20T11:50:35.506Z,21.70
2018-11-20T11:53:25.018Z,14.63
2018-11-20T11:56:11.515Z,14.78
2018-11-20T11:58:54.132Z,12.10
2018-11-20T12:04:43.684Z,12.40
2018-11-20T12:07:24.745Z,14.90
2018-11-20T12:10:11.171Z,14.63
2018-11-20T12:12:53.162Z,12.98
2018-11-20T12:15:39.330Z,6.55
2018-11-20T12:18:25.630Z,9.83
2018-11-20T12:21:16.380Z,9.68
2018-11-20T12:24:14.484Z,16.27
2018-11-20T12:26:58.622Z,16.30
2018-11-20T12:29:45.669Z,17.42
2018-11-20T12:32:27.903Z,12.60
2018-11-20T12:35:15.615Z,16.35
2018-11-20T12:37:53.283Z,10.70
2018-11-20T12:40:53.226Z,20.77
2018-11-20T12:43:39.528Z,14.47
2018-11-20T12:46:39.232Z,11.08
2018-11-20T12:49:25.772Z,12.28
2018-11-20T12:52:13.111Z,13.48
2018-11-20T12:55:31.201Z,13.38
2018-11-20T12:58:17.260Z,14.73
2018-11-20T13:01:05.219Z,11.65
2018-11-20T13:03:57.452Z,11.45
2018-11-20T13:06:38.430Z,18.70
2018-11-20T13:09:26.186Z,9.73
2018-11-20T13:12:12.252Z,20.88
2018-11-20T13:15:02.926Z,15.93
2018-11-20T13:17:53.448Z,20.77
2018-11-20T13:20:54.383Z,20.15
2018-11-20T13:23:50.929Z,14.25
2018-11-20T13:26:36.796Z,19.27
2018-11-20T13:29:35.712Z,25.75
2018-11-20T13:32:26.371Z,25.05
2018-11-20T13:35:23.259Z,10.95
2018-11-20T13:38:22.739Z,11.33
2018-11-20T13:41:39.925Z,32.08
2018-11-20T13:44:25.730Z,15.80
2018-11-20T13:47:12.071Z,38.05
2018-11-20T13:49:54.089Z,18.50
2018-11-20T13:52:40.318Z,24.57
2018-11-20T13:55:31.920Z,18.60
2018-11-20T13:58:19.515Z,26.23
2018-11-20T14:01:10.334Z,16.52
2018-11-20T14:04:06.901Z,28.60
2018-11-20T14:06:53.202Z,27.65
2018-11-20T14:09:39.190Z,25.80
2018-11-20T14:12:33.201Z,28.52
2018-11-20T14:15:30.117Z,21.90
2018-11-20T14:18:16.805Z,25.90
2018-11-20T14:21:03.129Z,30.43
2018-11-20T14:24:05.989Z,33.25
2018-11-20T14:26:52.171Z,27.02
2018-11-20T14:29:40.109Z,34.20
2018-11-20T14:32:31.616Z,39.13
2018-11-20T14:35:17.917Z,21.93
2018-11-20T14:38:17.725Z,38.42
2018-11-20T14:41:17.660Z,35.98
2018-11-20T14:44:04.111Z,36.20
2018-11-20T14:46:50.575Z,33.70
2018-11-20T14:49:41.120Z,27.67
2018-11-20T14:52:28.575Z,33.95
2018-11-20T14:55:23.417Z,32.23
2018-11-20T14:58:09.698Z,29.45
2018-11-20T15:00:48.169Z,37.25
2018-11-20T15:03:54.158Z,32.05
2018-11-20T15:06:39.750Z,44.53
2018-11-20T15:09:23.507Z,43.80
2018-11-20T15:12:17.316Z,39.18
2018-11-20T15:15:03.865Z,35.63
2018-11-20T15:17:50.132Z,35.10
2018-11-20T15:20:48.257Z,40.15
2018-11-20T15:23:25.630Z,40.52
2018-11-20T15:26:13.639Z,40.65
2018-11-20T15:29:05.193Z,38.28
2018-11-20T15:32:05.022Z,46.00
2018-11-20T15:34:51.330Z,44.70
2018-11-20T15:37:45.335Z,46.48
2018-11-20T15:40:39.262Z,51.68
2018-11-20T15:43:23.894Z,39.75
2018-11-20T15:46:29.590Z,37.67
2018-11-20T15:49:17.535Z,31.50
2018-11-20T15:52:03.599Z,45.78
2018-11-20T15:54:52.263Z,31.80
2018-11-20T15:57:39.297Z,38.30
2018-11-20T16:00:39.965Z,45.30
2018-11-20T16:03:27.825Z,35.03
2018-11-20T16:06:27.599Z,46.20
2018-11-20T16:09:13.563Z,38.45
2018-11-20T16:12:07.406Z,38.80
2018-11-20T16:14:53.630Z,38.55
2018-11-20T16:17:33.218Z,44.60
2018-11-20T16:20:19.783Z,36.98
2018-11-20T16:23:06.107Z,54.98
2018-11-20T16:25:56.764Z,33.58
2018-11-20T16:28:43.288Z,40.70
2018-11-20T16:31:29.608Z,36.15
2018-11-20T16:34:15.776Z,40.12
2018-11-20T16:37:03.622Z,44.55
2018-11-20T16:39:51.061Z,50.35
2018-11-20T16:42:37.243Z,39.40
2018-11-20T16:45:24.979Z,41.68
2018-11-20T16:48:11.473Z,40.90
2018-11-20T16:51:08.277Z,47.98
2018-11-20T16:53:54.753Z,42.20
2018-11-20T16:56:45.661Z,45.58
2018-11-20T16:59:36.508Z,34.08
2018-11-20T17:02:27.917Z,32.42
2018-11-20T17:05:15.769Z,34.08
2018-11-20T17:08:14.328Z,44.53
2018-11-20T17:10:57.653Z,40.50
2018-11-20T17:13:46.128Z,40.63
2018-11-20T17:16:32.323Z,46.77
2018-11-20T17:19:35.065Z,33.78
2018-11-20T17:22:21.437Z,42.20
2018-11-20T17:25:18.399Z,36.00
2018-11-20T17:27:53.275Z,34.43
2018-11-20T17:30:31.602Z,21.93
2018-11-20T17:33:25.261Z,40.95
2018-11-20T17:36:05.842Z,30.08
2018-11-20T17:38:52.272Z,31.50
2018-11-20T17:41:46.196Z,28.20
2018-11-20T17:44:34.041Z,36.15
2018-11-20T17:47:36.726Z,26.80
2018-11-20T17:50:24.093Z,33.30
2018-11-20T17:53:10.596Z,23.47
2018-11-20T17:56:10.128Z,23.18
2018-11-20T17:58:50.109Z,35.45
2018-11-20T18:01:35.655Z,33.73
2018-11-20T18:04:38.660Z,33.58
2018-11-20T18:07:24.849Z,41.55
2018-11-20T18:10:09.954Z,52.85
2018-11-20T18:12:56.309Z,44.77
2018-11-20T18:15:44.248Z,34.15
2018-11-20T18:18:41.110Z,33.58
2018-11-20T18:21:27.222Z,38.78
2018-11-20T18:24:23.219Z,28.65
2018-11-20T18:27:02.395Z,35.88
2018-11-20T18:29:50.384Z,23.38
2018-11-20T18:32:36.697Z,38.15
2018-11-20T18:35:27.480Z,31.52
2018-11-20T18:38:13.786Z,24.18
2018-11-20T18:40:59.994Z,28.07
2018-11-20T18:43:47.995Z,21.17
2018-11-20T18:46:29.892Z,24.47
2018-11-20T18:49:35.759Z,25.70
2018-11-20T18:52:22.194Z,29.60
2018-11-20T18:55:25.299Z,14.20
2018-11-20T18:58:11.393Z,30.17
2018-11-20T19:01:08.599Z,25.88
2018-11-20T19:04:14.545Z,21.82
2018-11-20T19:07:01.097Z,21.10
2018-11-20T19:09:47.508Z,24.23
2018-11-20T19:12:38.131Z,14.73
2018-11-20T19:15:24.892Z,16.75
2018-11-20T19:18:15.887Z,20.95
2018-11-20T19:20:57.433Z,20.92
2018-11-20T19:23:43.898Z,17.17
2018-11-20T19:26:25.625Z,26.07
2018-11-20T19:29:28.524Z,25.68
2018-11-20T19:32:28.071Z,27.07
2018-11-20T19:35:27.748Z,20.57
2018-11-20T19:38:06.580Z,16.55
2018-11-20T19:40:49.260Z,21.15
2018-11-20T19:43:37.110Z,26.48
2018-11-20T19:46:25.038Z,23.90
2018-11-20T19:49:18.793Z,22.45
2018-11-20T19:52:05.238Z,31.93
2018-11-20T19:55:11.071Z,25.75
2018-11-20T19:58:18.085Z,15.75
2018-11-20T20:01:04.331Z,18.60
2018-11-20T20:03:50.460Z,12.47
2018-11-20T20:06:38.307Z,21.97
2018-11-20T20:09:37.379Z,24.00
2018-11-20T20:12:43.192Z,15.25
2018-11-20T20:15:31.173Z,10.88
2018-11-20T20:18:17.368Z,18.12
2018-11-20T20:21:17.465Z,21.23
2018-11-20T20:24:14.454Z,15.90
2018-11-20T20:26:57.017Z,9.25
2018-11-20T20:29:50.698Z,13.55
2018-11-20T20:32:44.047Z,19.62
2018-11-20T20:35:31.636Z,16.90
2018-11-20T20:38:31.352Z,15.43
2018-11-20T20:41:17.437Z,18.35
2018-11-20T20:43:59.842Z,13.75
2018-11-20T20:46:38.748Z,15.95
2018-11-20T20:49:22.673Z,16.62
2018-11-20T20:52:25.483Z,15.72
2018-11-20T20:55:13.325Z,16.12
2018-11-20T20:57:56.222Z,13.83
2018-11-20T21:00:49.975Z,12.85
2018-11-20T21:03:32.771Z,20.97
2018-11-20T21:06:26.316Z,14.28
2018-11-20T21:09:16.735Z,12.58
2018-11-20T21:12:18.001Z,14.58
2018-11-20T21:15:03.927Z,11.93
2018-11-20T21:17:57.726Z,10.38
2018-11-20T21:20:44.113Z,12.00
2018-11-20T21:23:30.171Z,11.48
2018-11-20T21:26:16.082Z,17.20
2018-11-20T21:28:59.419Z,13.62
2018-11-20T21:31:53.215Z,13.15
2018-11-20T21:34:47.203Z,13.53
2018-11-20T21:37:40.519Z,12.85
2018-11-20T21:40:26.775Z,16.82
2018-11-20T21:43:32.255Z,18.98
2018-11-20T21:46:32.060Z,18.23
2018-11-20T21:49:37.575Z,13.32
2018-11-20T21:52:16.982Z,14.20
2018-11-20T21:55:16.450Z,14.50
2018-11-20T21:58:09.961Z,14.80
2018-11-20T22:00:58.473Z,11.55
2018-11-20T22:03:44.701Z,21.27
2018-11-20T22:06:30.612Z,16.75
2018-11-20T22:09:24.141Z,13.18
2018-11-20T22:12:17.507Z,16.65
2018-11-20T22:15:03.619Z,9.05
2018-11-20T22:17:49.839Z,10.28
2018-11-20T22:20:39.437Z,15.53
2018-11-20T22:23:23.180Z,14.47
2018-11-20T22:26:00.486Z,13.95
2018-11-20T22:28:42.618Z,12.78
2018-11-20T22:31:39.194Z,12.03
2018-11-20T22:34:25.626Z,17.10
2018-11-20T22:37:19.032Z,11.70
2018-11-20T22:40:18.880Z,16.55
2018-11-20T22:43:12.364Z,12.40
2018-11-20T22:46:02.782Z,12.90
2018-11-20T22:48:48.979Z,17.82
2018-11-20T22:51:45.258Z,7.90
2018-11-20T22:54:37.806Z,14.83
2018-11-20T22:57:31.504Z,16.95
2018-11-20T23:00:17.603Z,12.50
2018-11-20T23:03:03.594Z,15.03
2018-11-20T23:05:56.691Z,17.92
2018-11-20T23:08:25.403Z,12.58
2018-11-20T23:10:54.118Z,16.45
2018-11-20T23:13:22.943Z,15.55
2018-11-20T23:15:51.654Z,16.02
2018-11-20T23:18:20.399Z,13.25
2018-11-20T23:20:49.150Z,17.48
2018-11-20T23:23:17.866Z,13.28
2018-11-20T23:25:46.587Z,19.48
2018-11-20T23:28:15.371Z,16.42
2018-11-20T23:30:44.087Z,15.50
2018-11-20T23:33:12.871Z,18.48
2018-11-20T23:35:54.181Z,15.03
2018-11-20T23:38:22.896Z,12.90
2018-11-20T23:40:51.853Z,14.35
2018-11-20T23:43:20.675Z,14.78
2018-11-20T23:45:49.459Z,12.60
2018-11-20T23:48:18.172Z,16.00
2018-11-20T23:50:47.003Z,12.95
2018-11-20T23:53:15.716Z,15.00
2018-11-20T23:55:44.419Z,18.65
2018-11-20T23:58:13.204Z,14.98
